Time;durP1;ratioP1;P1;durP2;ratioP2;P2;SDS_P1;SDS_P2;PMS_P1;PMS_P2;Temp;Humidity;BMP_temperature;BMP_pressure;BME280_temperature;BME280_humidity;BME280_pressure;Samples;Min_cycle;Max_cycle;Signal;HPM_P1;HPM_P2
2022/11/27 00:00:27;;;;;;;18.00;14.53;;;3.80;99.90;;;;;;5030943;28;20235;-64
2022/11/27 00:02:52;;;;;;;17.92;14.43;;;3.80;99.90;;;;;;5027305;28;20679;-64
2022/11/27 00:05:18;;;;;;;16.73;14.43;;;3.90;99.90;;;;;;5029026;28;20179;-65
2022/11/27 00:07:43;;;;;;;18.63;14.60;;;4.00;99.90;;;;;;5032989;28;20183;-65
2022/11/27 00:10:09;;;;;;;18.03;14.27;;;4.00;99.90;;;;;;5029114;28;20191;-65
2022/11/27 00:12:35;;;;;;;16.33;14.25;;;3.80;99.90;;;;;;5030720;28;20186;-65
2022/11/27 00:15:02;;;;;;;14.63;12.90;;;3.70;99.90;;;;;;5020017;28;20616;-65
2022/11/27 00:17:28;;;;;;;14.70;12.63;;;3.80;99.90;;;;;;5029712;28;20649;-65
2022/11/27 00:19:54;;;;;;;15.27;13.13;;;3.60;99.90;;;;;;5024533;28;20227;-65
2022/11/27 00:22:19;;;;;;;14.63;13.13;;;3.90;99.90;;;;;;5028694;28;20591;-65
2022/11/27 00:24:45;;;;;;;14.43;12.73;;;3.60;99.90;;;;;;5030819;28;20208;-65
2022/11/27 00:27:11;;;;;;;13.80;12.00;;;3.70;99.90;;;;;;5029900;28;20232;-65
2022/11/27 00:29:36;;;;;;;14.47;12.90;;;3.80;99.90;;;;;;5029765;28;20215;-65
2022/11/27 00:32:05;;;;;;;13.50;12.10;;;3.30;99.90;;;;;;5021833;28;20192;-65
2022/11/27 00:34:31;;;;;;;13.13;11.65;;;3.60;99.90;;;;;;5025600;28;20699;-66
2022/11/27 00:36:56;;;;;;;14.75;12.85;;;3.90;99.90;;;;;;5027494;28;20194;-65
2022/11/27 00:39:22;;;;;;;12.03;10.70;;;3.70;99.90;;;;;;5025121;28;20297;-66
2022/11/27 00:41:48;;;;;;;12.53;10.80;;;3.60;99.90;;;;;;5026773;28;20197;-64
2022/11/27 00:44:14;;;;;;;15.30;12.17;;;3.60;99.90;;;;;;5027873;28;20202;-65
2022/11/27 00:46:40;;;;;;;15.57;11.70;;;3.60;99.90;;;;;;5025493;28;20552;-65
2022/11/27 00:49:07;;;;;;;14.27;12.50;;;4.10;99.90;;;;;;5030586;28;20197;-65
2022/11/27 00:51:33;;;;;;;14.18;11.02;;;3.90;99.90;;;;;;5028095;28;20175;-64
2022/11/27 00:53:59;;;;;;;13.57;11.10;;;3.10;99.90;;;;;;5024331;28;20543;-65
2022/11/27 00:56:27;;;;;;;13.33;11.50;;;4.00;99.90;;;;;;5030978;28;20198;-64
2022/11/27 00:58:54;;;;;;;13.57;11.85;;;3.70;99.90;;;;;;5030182;28;20207;-64
2022/11/27 01:01:29;;;;;;;12.95;11.38;;;4.00;99.90;;;;;;5027794;28;20297;-64
2022/11/27 01:03:56;;;;;;;14.15;11.82;;;3.90;99.90;;;;;;5021367;28;20736;-64
2022/11/27 01:06:23;;;;;;;13.73;11.45;;;3.80;99.90;;;;;;5027926;28;20917;-63
2022/11/27 01:08:48;;;;;;;13.73;12.20;;;3.70;99.90;;;;;;5023793;28;20272;-64
2022/11/27 01:11:26;;;;;;;14.80;12.27;;;3.50;99.90;;;;;;5028775;28;20659;-63
2022/11/27 01:13:54;;;;;;;13.35;12.00;;;3.30;99.90;;;;;;5029287;28;20210;-64
2022/11/27 01:16:23;;;;;;;14.95;12.38;;;3.40;99.90;;;;;;5044840;28;20186;-64
2022/11/27 01:18:50;;;;;;;12.02;10.82;;;3.40;99.90;;;;;;5029238;28;20558;-64
2022/11/27 01:21:19;;;;;;;17.30;12.13;;;3.40;99.90;;;;;;5038760;23;20230;-70
2022/11/27 01:23:45;;;;;;;12.88;10.65;;;3.30;99.90;;;;;;5029721;28;20281;-73
2022/11/27 01:26:11;;;;;;;13.93;10.80;;;3.20;99.90;;;;;;5027369;28;20278;-72
2022/11/27 01:28:41;;;;;;;13.38;10.93;;;3.40;99.90;;;;;;5029755;28;20218;-71
2022/11/27 01:31:12;;;;;;;14.25;10.85;;;3.30;99.90;;;;;;5024479;28;20244;-72
2022/11/27 01:33:38;;;;;;;13.80;11.25;;;3.50;99.90;;;;;;5029821;28;20285;-71
2022/11/27 01:36:06;;;;;;;19.43;12.00;;;3.40;99.90;;;;;;5028683;28;20277;-72
2022/11/27 01:38:33;;;;;;;17.20;12.00;;;3.40;99.90;;;;;;5029894;28;20833;-71
2022/11/27 01:41:20;;;;;;;11.63;10.43;;;4.10;99.90;;;;;;5034985;28;20219;-71
2022/11/27 01:43:51;;;;;;;12.80;11.30;;;3.50;99.90;;;;;;5042737;28;20202;-71
2022/11/27 01:46:29;;;;;;;13.20;10.95;;;3.50;99.90;;;;;;5028060;28;20191;-73
2022/11/27 01:49:09;;;;;;;12.13;10.45;;;3.50;99.90;;;;;;5030301;28;20174;-70
2022/11/27 01:51:43;;;;;;;13.82;11.02;;;3.80;99.90;;;;;;5026396;28;20555;-70
2022/11/27 01:54:09;;;;;;;11.60;10.45;;;3.50;99.90;;;;;;5038778;28;20302;-70
2022/11/27 01:56:35;;;;;;;11.55;10.35;;;3.80;99.90;;;;;;5030046;28;20191;-70
2022/11/27 01:59:02;;;;;;;12.73;10.88;;;3.70;99.90;;;;;;5033376;28;20201;-70
2022/11/27 02:01:28;;;;;;;12.18;10.13;;;2.90;99.90;;;;;;5029119;28;20582;-70
2022/11/27 02:03:58;;;;;;;13.87;10.73;;;3.60;99.90;;;;;;5026859;28;20204;-70
2022/11/27 02:06:24;;;;;;;12.35;10.82;;;3.30;99.90;;;;;;5031608;28;20434;-70
2022/11/27 02:08:51;;;;;;;12.25;10.77;;;3.10;99.90;;;;;;5028524;28;20182;-70
2022/11/27 02:11:54;;;;;;;11.35;9.70;;;3.40;99.90;;;;;;5030977;28;20192;-71
2022/11/27 02:14:38;;;;;;;14.93;11.18;;;3.30;99.90;;;;;;5028996;28;20267;-70
2022/11/27 02:17:16;;;;;;;13.13;10.15;;;3.20;99.90;;;;;;5028561;28;20183;-72
2022/11/27 02:20:18;;;;;;;15.00;10.60;;;3.20;99.90;;;;;;5026684;28;20212;-71
2022/11/27 02:23:01;;;;;;;12.23;10.57;;;3.20;99.90;;;;;;5027513;28;20728;-71
2022/11/27 02:25:46;;;;;;;11.95;10.68;;;3.40;99.90;;;;;;5028502;28;20677;-71
2022/11/27 02:28:33;;;;;;;11.13;10.07;;;3.20;99.90;;;;;;5018729;28;20182;-71
2022/11/27 02:31:13;;;;;;;12.50;10.88;;;2.90;99.90;;;;;;5047427;28;20201;-72
2022/11/27 02:33:44;;;;;;;11.77;10.35;;;3.20;99.90;;;;;;5036271;28;20203;-72
2022/11/27 02:36:17;;;;;;;12.13;10.13;;;2.90;99.90;;;;;;5032937;28;20186;-71
2022/11/27 02:39:01;;;;;;;10.90;9.80;;;2.60;99.90;;;;;;5030998;28;20647;-71
2022/11/27 02:41:32;;;;;;;15.20;10.77;;;2.80;99.90;;;;;;5032361;28;20233;-73
2022/11/27 02:44:00;;;;;;;11.23;10.05;;;2.30;99.90;;;;;;5031489;28;20940;-72
2022/11/27 02:46:27;;;;;;;12.02;10.15;;;2.70;99.90;;;;;;5033123;28;20186;-71
2022/11/27 02:49:00;;;;;;;12.75;10.30;;;3.00;99.90;;;;;;5031524;28;20194;-72
2022/11/27 02:51:41;;;;;;;11.43;9.95;;;3.10;99.90;;;;;;5024405;28;20186;-71
2022/11/27 02:54:13;;;;;;;13.70;10.80;;;3.40;99.90;;;;;;5027367;28;20437;-72
2022/11/27 02:56:41;;;;;;;11.93;10.20;;;2.90;99.90;;;;;;5033061;28;20186;-72
2022/11/27 02:59:11;;;;;;;11.50;9.88;;;3.00;99.90;;;;;;5044821;28;20190;-71
2022/11/27 03:01:42;;;;;;;13.00;10.88;;;2.40;99.90;;;;;;5032608;28;20277;-73
2022/11/27 03:04:11;;;;;;;11.40;9.77;;;2.60;99.90;;;;;;5032255;28;20199;-71
2022/11/27 03:06:44;;;;;;;12.57;10.82;;;2.70;99.90;;;;;;5031263;28;20183;-71
2022/11/27 03:09:21;;;;;;;11.40;10.30;;;2.40;99.90;;;;;;5027908;28;20277;-71
2022/11/27 03:11:48;;;;;;;12.70;10.18;;;2.40;99.90;;;;;;5034412;28;20269;-71
2022/11/27 03:14:15;;;;;;;11.55;10.35;;;2.80;99.90;;;;;;5032571;28;20204;-72
2022/11/27 03:17:01;;;;;;;12.70;10.68;;;2.70;99.90;;;;;;5027179;28;20211;-73
2022/11/27 03:19:30;;;;;;;12.05;10.10;;;2.80;99.90;;;;;;5026591;28;20216;-73
2022/11/27 03:22:00;;;;;;;13.68;10.20;;;2.50;99.90;;;;;;5046766;28;20229;-71
2022/11/27 03:24:27;;;;;;;13.75;10.85;;;2.60;99.90;;;;;;5036357;28;20665;-72
2022/11/27 03:26:53;;;;;;;11.98;9.98;;;2.10;99.90;;;;;;5031236;28;20198;-72
2022/11/27 03:29:25;;;;;;;11.03;9.93;;;2.50;99.90;;;;;;5029018;28;20241;-72
2022/11/27 03:31:50;;;;;;;10.73;9.43;;;2.80;99.90;;;;;;5032198;28;20437;-71
2022/11/27 03:34:16;;;;;;;12.00;10.00;;;2.70;99.90;;;;;;5032346;28;20203;-72
2022/11/27 03:36:43;;;;;;;12.85;10.60;;;2.50;99.90;;;;;;5031562;28;20437;-72
2022/11/27 03:39:09;;;;;;;10.73;9.20;;;2.80;99.90;;;;;;5031871;28;20643;-71
2022/11/27 03:41:57;;;;;;;10.60;9.00;;;2.70;99.90;;;;;;5031071;28;20240;-72
2022/11/27 03:44:48;;;;;;;13.25;10.30;;;2.60;99.90;;;;;;5025419;28;20690;-73
2022/11/27 03:47:41;;;;;;;10.52;9.48;;;2.50;99.90;;;;;;5026596;28;20181;-71
2022/11/27 03:50:29;;;;;;;14.07;10.85;;;2.60;99.90;;;;;;5031261;28;20720;-71
2022/11/27 03:53:16;;;;;;;10.57;9.48;;;2.40;99.90;;;;;;5031101;28;20386;-73
2022/11/27 03:55:41;;;;;;;11.85;10.05;;;2.60;99.90;;;;;;5031919;28;20213;-71
2022/11/27 03:58:34;;;;;;;12.27;9.90;;;2.30;99.90;;;;;;5031649;28;20297;-72
2022/11/27 04:01:03;;;;;;;14.40;10.23;;;2.50;99.90;;;;;;5030940;28;20206;-71
2022/11/27 04:03:29;;;;;;;11.13;9.43;;;2.40;99.90;;;;;;5029719;28;20212;-74
2022/11/27 04:05:55;;;;;;;15.00;9.90;;;2.30;99.90;;;;;;5032516;28;20299;-74
2022/11/27 04:08:22;;;;;;;10.40;8.32;;;2.70;99.90;;;;;;5031166;28;20187;-74
2022/11/27 04:10:48;;;;;;;14.85;9.60;;;2.50;99.90;;;;;;5031431;28;20194;-71
2022/11/27 04:13:14;;;;;;;10.67;9.57;;;2.50;99.90;;;;;;5031996;28;20207;-71
2022/11/27 04:15:40;;;;;;;12.73;9.70;;;2.50;99.90;;;;;;5029767;28;20194;-71
2022/11/27 04:18:06;;;;;;;12.83;9.00;;;2.60;99.90;;;;;;5028938;28;20190;-71
2022/11/27 04:20:32;;;;;;;15.40;9.50;;;2.50;99.90;;;;;;5045316;28;20567;-73
2022/11/27 04:22:57;;;;;;;13.27;9.97;;;2.70;99.90;;;;;;5030896;28;20445;-71
2022/11/27 04:25:23;;;;;;;11.70;8.50;;;3.20;99.90;;;;;;5019294;28;20195;-72
2022/11/27 04:27:49;;;;;;;10.87;9.60;;;2.60;99.90;;;;;;5029184;28;20726;-73
2022/11/27 04:30:16;;;;;;;10.10;8.75;;;2.60;99.90;;;;;;5043343;28;20445;-72
2022/11/27 04:32:41;;;;;;;11.82;8.77;;;2.50;99.90;;;;;;5029588;28;20277;-72
2022/11/27 04:35:07;;;;;;;11.67;8.83;;;2.20;99.90;;;;;;5031297;28;20262;-72
2022/11/27 04:37:33;;;;;;;11.38;9.18;;;2.70;99.90;;;;;;5034893;28;20197;-74
2022/11/27 04:39:59;;;;;;;16.17;9.10;;;2.80;99.90;;;;;;5032535;28;20206;-71
2022/11/27 04:42:25;;;;;;;11.13;8.77;;;2.40;99.90;;;;;;5030228;28;20187;-74
2022/11/27 04:44:51;;;;;;;12.10;9.33;;;2.90;99.90;;;;;;5031089;28;20552;-72
2022/11/27 04:47:16;;;;;;;9.80;7.77;;;2.70;99.90;;;;;;5030313;28;20287;-71
2022/11/27 04:49:42;;;;;;;9.83;8.60;;;2.80;99.90;;;;;;5029339;28;20215;-72
2022/11/27 04:52:09;;;;;;;10.20;8.47;;;2.90;99.90;;;;;;5025998;28;20183;-72
2022/11/27 04:54:35;;;;;;;8.75;7.85;;;2.50;99.90;;;;;;5027879;28;20206;-72
2022/11/27 04:57:01;;;;;;;10.90;8.68;;;2.30;99.90;;;;;;5022638;28;20229;-69
2022/11/27 04:59:27;;;;;;;10.80;8.20;;;2.90;99.90;;;;;;5028826;28;20198;-68
2022/11/27 05:01:53;;;;;;;8.73;7.85;;;3.00;99.90;;;;;;5020055;28;20240;-69
2022/11/27 05:04:19;;;;;;;9.40;8.00;;;2.90;99.90;;;;;;5026659;28;20206;-68
2022/11/27 05:06:45;;;;;;;10.95;7.88;;;3.10;99.90;;;;;;5027088;28;20207;-66
2022/11/27 05:09:11;;;;;;;10.77;7.77;;;2.90;99.90;;;;;;5025272;28;20176;-67
2022/11/27 05:11:36;;;;;;;8.80;7.33;;;2.90;99.90;;;;;;5025297;28;20178;-66
2022/11/27 05:14:14;;;;;;;7.07;6.47;;;3.00;99.90;;;;;;5044091;28;20683;-65
2022/11/27 05:16:51;;;;;;;8.90;7.40;;;2.10;99.90;;;;;;5032165;28;20231;-66
2022/11/27 05:19:19;;;;;;;9.60;7.90;;;2.60;99.90;;;;;;5029161;28;20579;-67
2022/11/27 05:21:46;;;;;;;9.50;7.10;;;2.30;99.90;;;;;;5020435;28;20290;-70
2022/11/27 05:24:12;;;;;;;9.32;7.75;;;2.30;99.90;;;;;;5026132;28;20198;-69
2022/11/27 05:26:38;;;;;;;10.02;8.10;;;2.20;99.90;;;;;;5021367;28;21287;-67
2022/11/27 05:29:04;;;;;;;8.82;7.88;;;2.80;99.90;;;;;;5044952;28;20650;-67
2022/11/27 05:31:30;;;;;;;9.95;8.20;;;1.80;99.90;;;;;;5027855;28;20186;-66
2022/11/27 05:33:56;;;;;;;10.93;8.60;;;2.20;99.90;;;;;;5028888;28;20206;-70
2022/11/27 05:36:21;;;;;;;12.97;8.30;;;2.40;99.90;;;;;;5034809;28;21997;-71
2022/11/27 05:38:47;;;;;;;9.03;8.03;;;2.00;99.90;;;;;;5044685;28;20477;-72
2022/11/27 05:41:13;;;;;;;9.67;8.03;;;2.50;99.90;;;;;;5030881;28;20213;-71
2022/11/27 05:43:38;;;;;;;8.77;7.87;;;2.40;99.90;;;;;;5027486;28;20206;-68
2022/11/27 05:46:05;;;;;;;11.47;8.20;;;2.50;99.90;;;;;;5040979;28;20478;-69
2022/11/27 05:48:32;;;;;;;8.80;7.25;;;2.20;99.90;;;;;;5025337;28;20186;-69
2022/11/27 05:50:57;;;;;;;9.35;7.82;;;1.90;99.90;;;;;;5027071;28;20289;-75
2022/11/27 05:53:23;;;;;;;11.00;7.70;;;2.40;99.90;;;;;;5024970;28;20861;-72
2022/11/27 05:55:49;;;;;;;9.73;8.20;;;2.30;99.90;;;;;;5028437;28;20228;-70
2022/11/27 05:58:14;;;;;;;11.30;7.27;;;2.50;99.90;;;;;;5027443;28;20658;-69
2022/11/27 06:00:40;;;;;;;8.27;7.20;;;2.20;99.90;;;;;;5026112;28;20244;-72
2022/11/27 06:03:05;;;;;;;7.67;5.83;;;1.80;99.90;;;;;;5030276;28;20198;-69
2022/11/27 06:05:31;;;;;;;10.07;8.20;;;2.10;99.90;;;;;;5031501;28;20247;-69
2022/11/27 06:07:57;;;;;;;8.80;7.23;;;2.40;99.90;;;;;;5030663;28;20180;-68
2022/11/27 06:10:22;;;;;;;9.80;7.37;;;2.30;99.90;;;;;;5031269;28;20218;-78
2022/11/27 06:12:48;;;;;;;9.27;7.87;;;2.10;99.90;;;;;;5029762;28;20194;-79
2022/11/27 06:15:14;;;;;;;10.67;7.80;;;2.20;99.90;;;;;;5031696;28;20580;-74
2022/11/27 06:17:39;;;;;;;8.60;7.70;;;2.10;99.90;;;;;;5026648;28;20179;-73
2022/11/27 06:20:06;;;;;;;7.97;7.17;;;2.40;99.90;;;;;;5026374;28;20587;-73
2022/11/27 06:22:31;;;;;;;11.65;7.95;;;2.10;99.90;;;;;;5026073;28;20297;-75
2022/11/27 06:24:57;;;;;;;7.47;6.77;;;2.30;99.90;;;;;;5031636;28;20739;-67
2022/11/27 06:27:22;;;;;;;10.07;8.07;;;2.10;99.90;;;;;;5030388;28;20640;-72
2022/11/27 06:29:48;;;;;;;8.50;7.60;;;2.40;99.90;;;;;;5046092;28;20555;-77
2022/11/27 06:32:14;;;;;;;8.33;6.87;;;2.40;99.90;;;;;;5045940;28;20655;-72
2022/11/27 06:34:39;;;;;;;8.77;7.87;;;2.30;99.90;;;;;;5031405;28;20210;-77
2022/11/27 06:37:05;;;;;;;9.77;7.33;;;2.30;99.90;;;;;;5029023;28;20182;-74
2022/11/27 06:39:31;;;;;;;8.73;6.83;;;2.60;99.90;;;;;;5033324;28;20234;-64
2022/11/27 06:41:56;;;;;;;8.83;7.03;;;2.60;99.90;;;;;;5029433;28;20785;-74
2022/11/27 06:44:22;;;;;;;8.00;6.90;;;2.80;99.90;;;;;;5031623;28;20336;-70
2022/11/27 06:46:47;;;;;;;7.60;6.50;;;2.80;99.90;;;;;;5047635;28;20178;-69
2022/11/27 06:49:13;;;;;;;9.57;7.17;;;2.70;99.90;;;;;;5045394;28;20183;-67
2022/11/27 06:51:39;;;;;;;7.83;6.93;;;2.40;99.90;;;;;;5027163;28;20298;-73
2022/11/27 06:54:04;;;;;;;7.10;6.40;;;2.60;99.90;;;;;;5034601;28;20206;-76
2022/11/27 06:56:31;;;;;;;8.50;6.90;;;2.10;99.90;;;;;;5029825;28;20191;-72
2022/11/27 06:58:58;;;;;;;8.80;6.88;;;2.00;99.90;;;;;;5031244;28;20550;-73
2022/11/27 07:01:25;;;;;;;8.25;7.25;;;2.40;99.90;;;;;;5046671;28;20217;-73
2022/11/27 07:03:51;;;;;;;9.02;7.00;;;2.40;99.90;;;;;;5034545;28;20499;-70
2022/11/27 07:06:19;;;;;;;9.27;6.93;;;2.60;99.90;;;;;;5027532;28;20678;-79
2022/11/27 07:08:45;;;;;;;12.15;7.18;;;2.50;99.90;;;;;;5032610;28;20474;-73
2022/11/27 07:11:14;;;;;;;8.77;6.50;;;2.30;99.90;;;;;;5033492;28;20210;-70
2022/11/27 07:13:40;;;;;;;7.70;6.57;;;2.30;99.90;;;;;;5026279;28;20338;-64
2022/11/27 07:16:08;;;;;;;13.05;7.65;;;2.60;99.90;;;;;;5030139;28;20190;-64
2022/11/27 07:18:35;;;;;;;9.45;7.15;;;3.10;99.90;;;;;;5032682;28;20182;-66
2022/11/27 07:21:01;;;;;;;7.50;6.68;;;2.70;99.90;;;;;;5028258;28;20922;-66
2022/11/27 07:23:27;;;;;;;7.83;7.10;;;2.40;99.90;;;;;;5025775;28;20301;-66
2022/11/27 07:25:52;;;;;;;8.63;7.70;;;2.40;99.90;;;;;;5028974;28;20191;-73
2022/11/27 07:28:18;;;;;;;7.90;7.10;;;2.40;99.90;;;;;;5029911;28;20704;-78
2022/11/27 07:30:44;;;;;;;8.43;7.30;;;2.50;99.90;;;;;;5029606;28;20268;-68
2022/11/27 07:33:09;;;;;;;11.40;7.60;;;2.70;99.90;;;;;;5033401;28;20218;-69
2022/11/27 07:35:35;;;;;;;11.23;8.40;;;2.30;99.90;;;;;;5028658;28;20204;-67
2022/11/27 07:38:01;;;;;;;10.40;8.23;;;3.10;99.90;;;;;;5029205;28;20277;-64
2022/11/27 07:40:26;;;;;;;8.47;6.80;;;2.80;99.90;;;;;;5029235;28;20693;-63
2022/11/27 07:42:52;;;;;;;7.10;6.40;;;3.20;99.90;;;;;;5022604;28;20191;-63
2022/11/27 07:45:17;;;;;;;8.73;7.00;;;3.20;99.90;;;;;;5027965;28;20552;-67
2022/11/27 07:47:43;;;;;;;7.70;6.90;;;3.20;99.90;;;;;;5029127;28;20230;-72
2022/11/27 07:50:09;;;;;;;7.87;7.17;;;3.40;99.90;;;;;;5031261;28;20196;-72
2022/11/27 07:52:36;;;;;;;8.60;6.95;;;3.20;99.90;;;;;;5034073;28;20192;-67
2022/11/27 07:55:02;;;;;;;8.98;7.55;;;3.70;99.90;;;;;;5045661;28;20210;-70
2022/11/27 07:57:27;;;;;;;12.15;6.97;;;3.50;99.90;;;;;;5028744;28;20195;-74
2022/11/27 07:59:53;;;;;;;11.13;8.10;;;3.90;99.90;;;;;;5035218;28;20219;-69
2022/11/27 08:02:19;;;;;;;8.00;7.20;;;3.70;99.90;;;;;;5029274;28;20547;-68
2022/11/27 08:04:45;;;;;;;9.40;7.67;;;3.60;99.90;;;;;;5027975;28;20465;-67
2022/11/27 08:07:11;;;;;;;10.00;7.90;;;4.10;99.90;;;;;;5024928;28;20283;-69
2022/11/27 08:09:38;;;;;;;10.70;6.82;;;4.00;99.90;;;;;;5031939;28;20458;-72
2022/11/27 08:12:04;;;;;;;8.07;7.20;;;4.00;99.90;;;;;;5026557;28;20758;-73
2022/11/27 08:14:30;;;;;;;7.80;7.00;;;3.80;99.90;;;;;;5032817;28;20246;-72
2022/11/27 08:16:56;;;;;;;7.40;6.60;;;4.10;99.90;;;;;;5028786;28;20197;-69
2022/11/27 08:19:22;;;;;;;11.43;7.93;;;4.50;99.90;;;;;;5025824;28;20191;-69
2022/11/27 08:21:47;;;;;;;9.65;7.97;;;4.10;99.90;;;;;;5025516;28;20275;-69
2022/11/27 08:24:13;;;;;;;9.80;8.67;;;4.10;99.90;;;;;;5022960;28;20246;-64
2022/11/27 08:26:39;;;;;;;8.13;7.30;;;4.10;99.90;;;;;;5029954;28;20190;-65
2022/11/27 08:29:05;;;;;;;8.70;7.90;;;4.10;99.90;;;;;;5028761;28;20179;-66
2022/11/27 08:31:32;;;;;;;9.45;8.30;;;4.10;99.90;;;;;;5029059;28;20197;-64
2022/11/27 08:33:58;;;;;;;8.55;7.75;;;3.90;99.90;;;;;;5027584;28;20679;-64
2022/11/27 08:36:25;;;;;;;9.50;8.50;;;3.90;99.90;;;;;;5046864;28;20196;-63
2022/11/27 08:38:51;;;;;;;9.80;8.80;;;4.10;99.90;;;;;;5031794;28;20543;-67
2022/11/27 08:41:17;;;;;;;8.38;7.15;;;4.30;99.90;;;;;;5033278;28;20289;-66
2022/11/27 08:43:43;;;;;;;8.43;7.63;;;4.00;99.90;;;;;;5033832;28;20298;-69
2022/11/27 08:46:09;;;;;;;9.30;7.80;;;3.80;99.90;;;;;;5026629;28;20439;-70
2022/11/27 08:48:35;;;;;;;9.02;8.02;;;4.10;99.90;;;;;;5027040;28;20192;-68
2022/11/27 08:51:12;;;;;;;9.40;8.40;;;4.80;99.90;;;;;;5027639;28;20197;-66
2022/11/27 08:53:38;;;;;;;12.10;8.85;;;4.50;99.90;;;;;;5022553;28;20213;-69
2022/11/27 08:56:24;;;;;;;9.50;8.30;;;4.50;99.90;;;;;;5027584;28;20288;-70
2022/11/27 08:58:50;;;;;;;11.10;7.80;;;4.90;99.90;;;;;;5027936;28;20190;-75
2022/11/27 09:01:19;;;;;;;8.18;7.38;;;5.00;99.90;;;;;;5018592;28;20721;-74
2022/11/27 09:03:45;;;;;;;8.95;7.65;;;5.40;99.90;;;;;;5027399;28;20211;-71
2022/11/27 09:06:17;;;;;;;9.00;7.57;;;5.60;99.90;;;;;;5042555;28;20260;-72
2022/11/27 09:08:43;;;;;;;8.25;7.35;;;5.90;99.90;;;;;;5039431;28;20181;-74
2022/11/27 09:11:10;;;;;;;10.45;6.95;;;6.10;99.90;;;;;;5030640;28;20332;-69
2022/11/27 09:13:38;;;;;;;9.85;7.15;;;6.30;99.90;;;;;;5025981;28;20701;-65
2022/11/27 09:16:04;;;;;;;7.90;7.05;;;6.40;99.90;;;;;;5026353;28;20244;-75
2022/11/27 09:18:30;;;;;;;10.05;7.63;;;6.60;99.90;;;;;;5022253;28;20221;-74
2022/11/27 09:20:57;;;;;;;7.53;6.80;;;7.10;99.90;;;;;;5043068;28;20744;-72
2022/11/27 09:23:23;;;;;;;10.43;6.95;;;6.90;99.90;;;;;;5026640;28;20225;-71
2022/11/27 09:25:49;;;;;;;8.40;7.63;;;7.10;99.90;;;;;;5027512;28;20505;-73
2022/11/27 09:28:14;;;;;;;6.70;6.10;;;7.60;99.90;;;;;;5028752;28;20230;-72
2022/11/27 09:30:40;;;;;;;6.43;5.83;;;7.30;99.90;;;;;;5027375;28;20192;-73
2022/11/27 09:33:06;;;;;;;7.37;6.77;;;7.50;99.90;;;;;;5023022;28;20236;-72
2022/11/27 09:35:32;;;;;;;7.30;6.50;;;7.40;99.90;;;;;;5036383;28;20186;-71
2022/11/27 09:37:57;;;;;;;7.30;6.43;;;7.10;99.90;;;;;;5043286;28;20461;-73
2022/11/27 09:40:25;;;;;;;10.03;8.87;;;7.40;99.90;;;;;;5060905;28;20264;-72
2022/11/27 09:43:01;;;;;;;8.23;7.43;;;8.60;99.90;;;;;;5032747;28;20407;-72
2022/11/27 09:45:29;;;;;;;7.63;6.93;;;7.50;99.90;;;;;;5056394;28;20170;-73
2022/11/27 09:48:00;;;;;;;7.95;7.25;;;7.70;99.90;;;;;;5050617;28;20266;-73
2022/11/27 09:50:30;;;;;;;8.15;6.70;;;7.70;99.90;;;;;;5052371;28;20262;-73
2022/11/27 09:53:02;;;;;;;7.07;6.47;;;7.90;99.90;;;;;;5052070;28;20190;-73
2022/11/27 09:55:31;;;;;;;10.77;8.20;;;8.30;99.90;;;;;;5053316;28;20204;-73
2022/11/27 09:58:15;;;;;;;9.30;8.32;;;8.00;99.90;;;;;;5051656;28;20194;-72
2022/11/27 10:00:43;;;;;;;8.93;8.02;;;8.00;99.90;;;;;;5049582;28;20536;-73
2022/11/27 10:03:14;;;;;;;9.48;8.60;;;8.30;99.90;;;;;;5053633;28;20261;-73
2022/11/27 10:06:07;;;;;;;9.05;8.25;;;8.40;99.90;;;;;;5050900;28;20189;-73
2022/11/27 10:09:18;;;;;;;9.07;7.82;;;8.20;99.90;;;;;;5052431;28;20169;-72
2022/11/27 10:11:59;;;;;;;9.63;7.93;;;8.00;99.90;;;;;;5053195;28;20190;-73
2022/11/27 10:14:31;;;;;;;9.25;8.35;;;8.00;99.90;;;;;;5050547;28;20209;-74
2022/11/27 10:17:35;;;;;;;8.77;7.97;;;7.90;99.90;;;;;;5049914;28;20198;-73
2022/11/27 10:20:53;;;;;;;10.77;8.48;;;8.40;99.90;;;;;;5031947;28;20248;-73
2022/11/27 10:23:33;;;;;;;9.23;8.32;;;8.30;99.90;;;;;;5024710;28;20206;-74
2022/11/27 10:26:19;;;;;;;12.05;8.80;;;8.40;99.90;;;;;;5035961;28;20221;-74
2022/11/27 10:28:49;;;;;;;10.65;8.27;;;8.50;99.90;;;;;;5042804;28;20302;-74
2022/11/27 10:31:24;;;;;;;8.30;7.50;;;8.30;99.90;;;;;;5041620;28;20190;-75
2022/11/27 10:33:57;;;;;;;9.07;8.10;;;8.40;99.90;;;;;;5045928;28;20273;-74
2022/11/27 10:36:45;;;;;;;9.50;8.65;;;8.60;99.90;;;;;;5044686;28;20191;-73
2022/11/27 10:39:17;;;;;;;10.48;8.23;;;8.80;99.90;;;;;;5047746;28;20178;-75
2022/11/27 10:41:53;;;;;;;8.48;7.75;;;8.80;99.90;;;;;;5054139;28;20238;-74
2022/11/27 10:44:28;;;;;;;8.60;7.90;;;8.60;99.90;;;;;;5063528;28;20210;-74
2022/11/27 10:47:01;;;;;;;10.50;8.60;;;9.00;99.90;;;;;;5041478;28;20182;-75
2022/11/27 10:49:27;;;;;;;9.73;8.38;;;9.20;99.90;;;;;;5034895;28;20369;-75
2022/11/27 10:51:52;;;;;;;8.67;7.87;;;9.60;99.90;;;;;;5044812;28;20648;-75
2022/11/27 10:54:26;;;;;;;9.63;8.60;;;9.90;99.90;;;;;;5044925;28;20203;-75
2022/11/27 10:57:12;;;;;;;8.25;7.55;;;10.60;98.50;;;;;;5043186;28;20196;-74
2022/11/27 11:00:03;;;;;;;8.85;7.78;;;11.50;96.60;;;;;;5040880;28;20189;-75
2022/11/27 11:02:37;;;;;;;9.52;8.52;;;11.60;95.50;;;;;;5035680;28;20211;-74
2022/11/27 11:05:30;;;;;;;8.45;7.63;;;11.70;95.40;;;;;;5039688;28;20204;-74
2022/11/27 11:08:05;;;;;;;8.05;6.93;;;11.70;95.50;;;;;;5045006;28;20669;-75
2022/11/27 11:10:37;;;;;;;7.90;7.03;;;12.20;94.60;;;;;;5037814;28;20272;-72
2022/11/27 11:13:15;;;;;;;7.70;7.00;;;12.10;92.90;;;;;;5046717;28;20280;-75
2022/11/27 11:16:04;;;;;;;8.23;7.43;;;12.20;93.30;;;;;;5042413;28;20187;-74
2022/11/27 11:18:33;;;;;;;7.30;6.60;;;11.70;93.20;;;;;;5041024;28;20197;-74
2022/11/27 11:21:06;;;;;;;6.97;6.20;;;11.50;93.40;;;;;;5035632;28;20205;-73
2022/11/27 11:23:37;;;;;;;6.03;5.50;;;11.80;93.60;;;;;;5026243;28;20614;-73
2022/11/27 11:26:11;;;;;;;6.85;6.15;;;11.80;93.30;;;;;;5028304;28;20188;-73
2022/11/27 11:28:47;;;;;;;6.30;5.70;;;11.50;92.80;;;;;;5021033;28;20698;-73
2022/11/27 11:31:18;;;;;;;6.10;5.60;;;11.10;93.40;;;;;;5034471;28;20184;-73
2022/11/27 11:33:53;;;;;;;6.38;5.75;;;11.00;94.20;;;;;;5033358;28;20657;-72
2022/11/27 11:36:19;;;;;;;6.53;5.93;;;11.00;94.10;;;;;;5028947;28;20657;-72
2022/11/27 11:38:46;;;;;;;7.20;6.40;;;10.70;94.00;;;;;;5031526;28;20227;-72
2022/11/27 11:41:12;;;;;;;8.57;5.80;;;10.70;94.50;;;;;;5032870;28;20202;-73
2022/11/27 11:43:38;;;;;;;7.28;5.50;;;10.10;95.30;;;;;;5035906;28;20198;-73
2022/11/27 11:46:18;;;;;;;6.75;6.05;;;10.20;95.70;;;;;;5050600;28;20233;-73
2022/11/27 11:49:07;;;;;;;7.07;6.38;;;10.00;96.40;;;;;;5031488;28;20635;-73
2022/11/27 11:52:03;;;;;;;7.88;5.80;;;9.90;97.40;;;;;;5028197;28;20210;-72
2022/11/27 11:54:48;;;;;;;8.57;6.65;;;9.40;97.70;;;;;;5028270;28;20242;-72
2022/11/27 11:57:26;;;;;;;9.98;8.07;;;9.70;98.20;;;;;;5042408;28;20252;-72
2022/11/27 12:00:08;;;;;;;9.57;8.68;;;9.80;98.20;;;;;;5030029;28;20214;-72
2022/11/27 12:02:46;;;;;;;6.70;6.00;;;9.90;98.20;;;;;;5020687;28;20266;-72
2022/11/27 12:05:33;;;;;;;8.45;7.47;;;9.80;97.80;;;;;;5026124;28;20217;-72
2022/11/27 12:08:18;;;;;;;7.55;6.68;;;9.60;97.70;;;;;;5029573;28;20194;-72
2022/11/27 12:10:52;;;;;;;5.95;5.13;;;9.70;98.50;;;;;;5030548;28;20248;-72
2022/11/27 12:13:33;;;;;;;5.90;5.30;;;9.70;97.20;;;;;;5030754;28;20219;-73
2022/11/27 12:16:05;;;;;;;5.45;4.50;;;9.60;96.60;;;;;;5028365;28;20182;-73
2022/11/27 12:18:49;;;;;;;5.75;4.60;;;9.80;96.30;;;;;;5024652;28;20200;-73
2022/11/27 12:21:22;;;;;;;5.38;4.63;;;10.20;95.10;;;;;;5029309;28;20221;-73
2022/11/27 12:23:54;;;;;;;5.60;4.90;;;10.30;94.20;;;;;;5028990;28;20204;-73
2022/11/27 12:26:56;;;;;;;4.85;4.20;;;10.50;94.10;;;;;;5029538;28;20639;-73
2022/11/27 12:29:35;;;;;;;4.85;3.63;;;10.40;93.60;;;;;;5030310;28;20272;-71
2022/11/27 12:32:31;;;;;;;6.75;5.72;;;10.30;91.90;;;;;;5029551;28;20184;-72
2022/11/27 12:35:28;;;;;;;3.47;3.10;;;10.20;92.30;;;;;;5029396;28;20211;-71
2022/11/27 12:38:11;;;;;;;6.65;4.38;;;10.10;93.00;;;;;;5029404;28;20205;-71
2022/11/27 12:40:46;;;;;;;5.15;4.18;;;10.00;93.70;;;;;;5044261;28;20211;-72
2022/11/27 12:43:23;;;;;;;4.03;3.70;;;9.80;93.90;;;;;;5032810;28;20679;-72
2022/11/27 12:46:08;;;;;;;4.30;3.90;;;9.80;93.80;;;;;;5025899;28;20194;-73
2022/11/27 12:48:46;;;;;;;4.55;4.03;;;9.80;93.70;;;;;;5035284;28;20274;-72
2022/11/27 12:51:21;;;;;;;3.80;3.50;;;10.00;93.50;;;;;;5033924;28;20185;-73
2022/11/27 12:54:08;;;;;;;3.40;3.10;;;9.60;94.20;;;;;;5028642;28;20203;-73
2022/11/27 12:56:49;;;;;;;4.10;3.70;;;9.60;94.10;;;;;;5031974;28;20588;-73
2022/11/27 12:59:42;;;;;;;4.40;3.92;;;9.60;94.70;;;;;;5034373;28;20209;-72
2022/11/27 13:02:22;;;;;;;4.30;3.90;;;9.90;94.80;;;;;;5032043;28;20218;-72
2022/11/27 13:05:01;;;;;;;4.35;3.72;;;9.70;94.90;;;;;;5023199;28;20318;-72
2022/11/27 13:07:40;;;;;;;6.30;5.20;;;10.00;94.40;;;;;;5025747;28;20201;-72